John Day, OR

10:43 PM PDT on August 28, 2016 (GMT -0700)
Grant County Regional | | Change Station
Active Advisory: Fire Weather Warning

Elev 3698 ft 44.40 °N, 118.96 °W | Updated 8 minutes ago

Clear
Clear
73 °F
Feels Like 73 °F
N
0
Wind Variable Wind from North

Today
High -- | Low -- °F
--% Chance of Precip.
Yesterday
High -- | Low -- °F
Precip. -- in
Pressure 30.09 in
Visibility 10.0 miles
Clouds Clear
Dew Point 40 °F
Humidity 30%
Rainfall 0.00 in
Snow Depth Not available.
6:14 AM 7:38 PM
Waning Crescent, 11% visible
METAR KGCD 290535Z AUTO 00000KT 10SM CLR 23/05 A3009 RMK AO2 T02290046
Pressure 30.09 in
Visibility 10.0 miles
Clouds Clear
Dew Point 40 °F
Humidity 30%
Rainfall 0.00 in
Snow Depth Not available.
6:14 AM 7:38 PM
Waning Crescent, 11% visible
METAR KGCD 290535Z AUTO 00000KT 10SM CLR 23/05 A3009 RMK AO2 T02290046

10-Day Weather Forecast

Almanac

Astronomy

Aug. 28, 2016 Rise Set
Actual Time
Civil Twilight
Nautical Twilight
Astronomical Twilight
Moon
Length of Visible Light
Length of Day
Tomorrow will be .
, % of the Moon is Illuminated

Today's Extremes

State Highs State Lows

Community

WunderPhotos

Upload Photos

1,935,800 photos uploaded!

WunderBlog® & News

Nearby

Air Quality

  Air Quality AQ Index Pollutant
Not available.

Snow Depth

Station Depth Elevation

Earthquake Activity

City Distance Mag. Time & Date
Minimum magnitude displayed is 2.5.

Coastal Water Temperatures

Place Temperature

Stations

Nearby Weather Stations

Station Location Temp. Windchill Dew Point Humidity Wind Precip. Elev Updated Type
                   

Watches & Warnings

Fire Weather Warning
Issued: 2:45 PM PDT Aug. 28, 2016 – National Weather Service

... Red flag warning remains in effect from 2 PM to 9 PM PDT
Monday for dry and unstable conditions... gusty winds and low
humidity for fire weather zone 642...

* affected area... in Oregon... fire weather zone 642 which covers
the John Day basin and ochoco Highlands... including the rail
wildfire.

* Timing... red flag conditions will be met between 2 PM and 7
PM during the peak heating of the day.

* Wind... southwest winds 10 to 15 mph. Local winds southwest 15
to 20 mph... mainly along ridge tops.

* Humidity... 8 to 15 percent.

* Haines... 5 (moderate category) in the morning increasing to a 6
(high category) in the afternoon and evening.

* Impacts... extreme fire behavior can be expected on any new
and existing fires... including the rail wildfire. Outdoor
burning is not recommended.

Precautionary/preparedness actions...

A red flag warning means that critical fire weather conditions
are either occurring now... .or will shortly. A combination of
strong winds... low relative humidity... and warm temperatures can
contribute to extreme fire behavior.